De Tour Village, MI (49725)

3:22 PM EST on February 21, 2017 (GMT -0500)
Drummond Island | | Change Station

Elev 669 ft 46.01 °N, 83.74 °W | Updated 7 minutes ago

Fog
Fog
40 °F
Feels Like 40 °F
N
0
Wind Variable Wind from North

Today
High -- | Low -- °F
--% Chance of Precip.
Yesterday
High -- | Low -- °F
Precip. -- in
Pressure 29.82 in
Visibility 2.0 miles
Clouds Overcast 200 ft
Dew Point 40 °F
Humidity 99%
Rainfall 0.28 in
Snow Depth Not available.
7:27 AM 6:11 PM
Waning Crescent, 23% visible
METAR KDRM 212015Z AUTO 00000KT 2SM BR OVC002 05/05 A2982 RMK AO2 T00470045
Pressure 29.82 in
Visibility 2.0 miles
Clouds Overcast 200 ft
Dew Point 40 °F
Humidity 99%
Rainfall 0.28 in
Snow Depth Not available.
7:27 AM 6:11 PM
Waning Crescent, 23% visible
METAR KDRM 212015Z AUTO 00000KT 2SM BR OVC002 05/05 A2982 RMK AO2 T00470045

Get Your Daily Forecast Email!

Thanks for signing up!

Be on the lookout for a verification email in your inbox.

You'll start receiving the daily forecast at 8 AM.

×

10-Day Weather Forecast

Almanac

Astronomy

Feb. 21, 2017 Rise Set
Actual Time
Civil Twilight
Nautical Twilight
Astronomical Twilight
Moon
Length of Visible Light
Length of Day
Tomorrow will be .
, % of the Moon is Illuminated

Today's Extremes

State Highs State Lows

Community

WunderPhotos

Upload Photos

1,962,540 photos uploaded!

WunderBlog® & News

Nearby

Air Quality

  Air Quality AQ Index Pollutant
Not available.

Snow Depth

Station Depth Elevation

Earthquake Activity

City Distance Mag. Time & Date
Minimum magnitude displayed is 2.5.

Coastal Water Temperatures

Place Temperature

Stations

Nearby Weather Stations

Station Location Temp. Windchill Dew Point Humidity Wind Precip. Elev Updated Type
                   

Watches & Warnings

There are currently no watches in effect.